Latest  Newer  Older  Last 2 hours animation  Current image  Latest image 
Rain/snow radar  Infrared sat images 
Real-time lightning map

All time is UTC (add 2 hours to UTC in wintertime, 3 hours to UTC in DST for Latvia local time)

2018/04/25 20:50 EVRA 252050Z 36009KT 6000 -RA OVC004 07/06 Q0997 RERA NOSIG
2018/04/25 20:50 EVLA 252050Z AUTO 27005KT 9999 FEW005/// SCT086/// 05/04 Q1000
2018/04/25 20:50 EVVA 252050Z AUTO 26009KT 9999 BKN039 OVC049 05/04 Q0999
2018/04/25 20:50 EYKA 252050Z 25014KT 9999 BKN012 OVC024 11/09 Q0998
2018/04/25 20:50 EYPA 252050Z 30006KT 240V360 9999 BKN004 BKN097 05/05 Q1001
2018/04/25 20:50 EYSA 252050Z 25014KT 220V280 9999 SCT011 BKN019 OVC025 10/08 Q0997 GRN NOSIG
2018/04/25 20:50 EYVI 252050Z 20010KT 2800 BR BKN002 OVC041 10/10 Q0999 NOSIG
2018/04/25 14:50 EEKA 251450Z 23008KT 9999 SCT020 09/03 Q0997
2018/04/25 20:50 EEKE 252050Z AUTO 27005KT 220V300 9999NDV SCT034 05/04 Q0998
2018/04/25 12:50 EEPU 251250Z 22016KT 9999 BKN035 09/04 Q0999
2018/04/25 20:50 EETN 252050Z 21005KT 9999 BKN031 06/04 Q0996 NOSIG
2018/04/25 20:50 EETU 252050Z AUTO 00000KT 9999 DZ SCT021/// OVC039/// 07/05 Q0997 REDZ
   RIGA AIRPORT     EVRA               56 55N  023 58E   10   X     T          6 LV
   LIEPAJA INTL     EVLA        26406  56 31N  021 06E    4   X                8 LV
   VENTPILS         EVVA               57 21N  021 33E    6   X                8 LV
   KAUNAS           EYKA               54 54N  023 55E   77   X     T          6 LT
   PALANGA INTL     EYPA               55 55N  021 03E   10   X                6 LT
   SIAULIAI INTL    EYSA               55 54N  023 24E  135   X     T          6 LT
   VILNIUS INTL     EYVI        26730  54 38N  025 17E  197   X     T          6 LT
   KARDLA           EEKA        26116  58 59N  022 50E    4   X                8 EE
   KURESSAARE       EEKE               58 14N  022 31E    4   X                8 EE
   PARNU            EEPU               58 25N  024 28E   14   X                8 EE
   TALLINN          EETN        26038  59 24N  024 49E   40   X     T          8 EE
   TARTU            EETU               58 19N  026 41E   67   X                8 EE

cloud coverage image from sat24.com and METAR data from weather.noaa.gov